sensor_id;sensor_type;location;lat;lon;timestamp;temperature;humidity
25188;DHT22;13141;50.414;8.050;2023-03-09T00:01:36;5.20;99.90
25188;DHT22;13141;50.414;8.050;2023-03-09T00:04:02;4.90;99.90
25188;DHT22;13141;50.414;8.050;2023-03-09T00:06:28;4.90;99.90
25188;DHT22;13141;50.414;8.050;2023-03-09T00:08:54;4.90;99.90
25188;DHT22;13141;50.414;8.050;2023-03-09T00:11:20;5.20;99.90
25188;DHT22;13141;50.414;8.050;2023-03-09T00:13:48;4.90;99.90
25188;DHT22;13141;50.414;8.050;2023-03-09T00:16:16;4.90;99.90
25188;DHT22;13141;50.414;8.050;2023-03-09T00:18:43;5.00;99.90
25188;DHT22;13141;50.414;8.050;2023-03-09T00:21:10;5.20;99.90
25188;DHT22;13141;50.414;8.050;2023-03-09T00:23:35;5.00;99.90
25188;DHT22;13141;50.414;8.050;2023-03-09T00:26:03;5.00;99.90
25188;DHT22;13141;50.414;8.050;2023-03-09T00:28:29;5.00;99.90
25188;DHT22;13141;50.414;8.050;2023-03-09T00:30:59;5.00;99.90
25188;DHT22;13141;50.414;8.050;2023-03-09T00:33:25;5.00;99.90
25188;DHT22;13141;50.414;8.050;2023-03-09T00:35:51;5.00;99.90
25188;DHT22;13141;50.414;8.050;2023-03-09T00:38:16;5.00;99.90
25188;DHT22;13141;50.414;8.050;2023-03-09T00:40:42;5.00;99.90
25188;DHT22;13141;50.414;8.050;2023-03-09T00:43:07;4.90;99.90
25188;DHT22;13141;50.414;8.050;2023-03-09T00:45:33;5.00;99.90
25188;DHT22;13141;50.414;8.050;2023-03-09T00:48:00;4.90;99.90
25188;DHT22;13141;50.414;8.050;2023-03-09T00:50:26;4.90;99.90
25188;DHT22;13141;50.414;8.050;2023-03-09T00:52:51;4.80;99.90
25188;DHT22;13141;50.414;8.050;2023-03-09T00:55:17;4.70;99.90
25188;DHT22;13141;50.414;8.050;2023-03-09T00:57:43;4.60;99.90
25188;DHT22;13141;50.414;8.050;2023-03-09T01:00:10;4.60;99.90
25188;DHT22;13141;50.414;8.050;2023-03-09T01:02:36;4.60;99.90
25188;DHT22;13141;50.414;8.050;2023-03-09T01:05:04;4.60;99.90
25188;DHT22;13141;50.414;8.050;2023-03-09T01:07:30;4.50;99.90
25188;DHT22;13141;50.414;8.050;2023-03-09T01:09:55;4.50;99.90
25188;DHT22;13141;50.414;8.050;2023-03-09T01:12:22;4.40;99.90
25188;DHT22;13141;50.414;8.050;2023-03-09T01:14:47;4.40;99.90
25188;DHT22;13141;50.414;8.050;2023-03-09T01:17:13;4.50;99.90
25188;DHT22;13141;50.414;8.050;2023-03-09T01:19:39;4.50;99.90
25188;DHT22;13141;50.414;8.050;2023-03-09T01:22:07;4.60;99.90
25188;DHT22;13141;50.414;8.050;2023-03-09T01:24:33;4.50;99.90
25188;DHT22;13141;50.414;8.050;2023-03-09T01:26:59;4.50;99.90
25188;DHT22;13141;50.414;8.050;2023-03-09T01:29:24;4.60;99.90
25188;DHT22;13141;50.414;8.050;2023-03-09T01:31:50;4.60;99.90
25188;DHT22;13141;50.414;8.050;2023-03-09T01:34:16;4.60;99.90
25188;DHT22;13141;50.414;8.050;2023-03-09T01:36:41;4.60;99.90
25188;DHT22;13141;50.414;8.050;2023-03-09T01:39:09;4.60;99.90
25188;DHT22;13141;50.414;8.050;2023-03-09T01:41:35;4.70;99.90
25188;DHT22;13141;50.414;8.050;2023-03-09T01:44:01;4.70;99.90
25188;DHT22;13141;50.414;8.050;2023-03-09T01:46:41;4.80;99.90
25188;DHT22;13141;50.414;8.050;2023-03-09T01:49:21;4.90;99.90
25188;DHT22;13141;50.414;8.050;2023-03-09T01:51:54;4.90;99.90
25188;DHT22;13141;50.414;8.050;2023-03-09T01:54:25;5.00;99.90
25188;DHT22;13141;50.414;8.050;2023-03-09T01:56:54;5.00;99.90
25188;DHT22;13141;50.414;8.050;2023-03-09T01:59:21;5.00;99.90
25188;DHT22;13141;50.414;8.050;2023-03-09T02:01:49;5.40;99.90
25188;DHT22;13141;50.414;8.050;2023-03-09T02:04:19;5.00;99.90
25188;DHT22;13141;50.414;8.050;2023-03-09T02:06:46;5.10;99.90
25188;DHT22;13141;50.414;8.050;2023-03-09T02:09:19;5.10;99.90
25188;DHT22;13141;50.414;8.050;2023-03-09T02:11:48;5.10;99.90
25188;DHT22;13141;50.414;8.050;2023-03-09T02:14:14;5.10;99.90
25188;DHT22;13141;50.414;8.050;2023-03-09T02:16:40;5.10;99.90
25188;DHT22;13141;50.414;8.050;2023-03-09T02:19:08;5.10;99.90
25188;DHT22;13141;50.414;8.050;2023-03-09T02:21:42;5.30;99.90
25188;DHT22;13141;50.414;8.050;2023-03-09T02:24:16;5.20;99.90
25188;DHT22;13141;50.414;8.050;2023-03-09T02:26:46;5.20;99.90
25188;DHT22;13141;50.414;8.050;2023-03-09T02:29:14;5.20;99.90
25188;DHT22;13141;50.414;8.050;2023-03-09T02:31:40;5.20;99.90
25188;DHT22;13141;50.414;8.050;2023-03-09T02:34:06;5.20;99.90
25188;DHT22;13141;50.414;8.050;2023-03-09T02:36:32;5.20;99.90
25188;DHT22;13141;50.414;8.050;2023-03-09T02:39:03;5.20;99.90
25188;DHT22;13141;50.414;8.050;2023-03-09T02:41:30;5.10;99.90
25188;DHT22;13141;50.414;8.050;2023-03-09T02:43:56;5.10;99.90
25188;DHT22;13141;50.414;8.050;2023-03-09T02:46:24;5.00;99.90
25188;DHT22;13141;50.414;8.050;2023-03-09T02:48:50;5.00;99.90
25188;DHT22;13141;50.414;8.050;2023-03-09T02:51:15;5.00;99.90
25188;DHT22;13141;50.414;8.050;2023-03-09T02:53:41;5.10;99.90
25188;DHT22;13141;50.414;8.050;2023-03-09T02:56:07;5.10;99.90
25188;DHT22;13141;50.414;8.050;2023-03-09T02:58:33;5.20;99.90
25188;DHT22;13141;50.414;8.050;2023-03-09T03:00:58;5.10;99.90
25188;DHT22;13141;50.414;8.050;2023-03-09T03:03:26;5.30;99.90
25188;DHT22;13141;50.414;8.050;2023-03-09T03:08:19;5.10;99.90
25188;DHT22;13141;50.414;8.050;2023-03-09T03:10:45;5.10;99.90
25188;DHT22;13141;50.414;8.050;2023-03-09T03:13:11;5.10;99.90
25188;DHT22;13141;50.414;8.050;2023-03-09T03:15:36;5.10;99.90
25188;DHT22;13141;50.414;8.050;2023-03-09T03:18:02;5.10;99.90
25188;DHT22;13141;50.414;8.050;2023-03-09T03:20:30;5.10;99.90
25188;DHT22;13141;50.414;8.050;2023-03-09T03:22:55;5.20;99.90
25188;DHT22;13141;50.414;8.050;2023-03-09T03:25:21;5.20;99.90
25188;DHT22;13141;50.414;8.050;2023-03-09T03:27:47;5.40;99.90
25188;DHT22;13141;50.414;8.050;2023-03-09T03:30:14;5.20;99.90
25188;DHT22;13141;50.414;8.050;2023-03-09T03:32:40;5.20;99.90
25188;DHT22;13141;50.414;8.050;2023-03-09T03:35:06;5.20;99.90
25188;DHT22;13141;50.414;8.050;2023-03-09T03:37:33;5.20;99.90
25188;DHT22;13141;50.414;8.050;2023-03-09T03:39:59;5.20;99.90
25188;DHT22;13141;50.414;8.050;2023-03-09T03:42:24;5.30;99.90
25188;DHT22;13141;50.414;8.050;2023-03-09T03:44:50;5.30;99.90
25188;DHT22;13141;50.414;8.050;2023-03-09T03:47:16;5.20;99.90
25188;DHT22;13141;50.414;8.050;2023-03-09T03:49:41;5.20;99.90
25188;DHT22;13141;50.414;8.050;2023-03-09T03:52:07;5.10;99.90
25188;DHT22;13141;50.414;8.050;2023-03-09T03:54:34;5.10;99.90
25188;DHT22;13141;50.414;8.050;2023-03-09T03:57:00;5.00;99.90
25188;DHT22;13141;50.414;8.050;2023-03-09T03:59:26;5.00;99.90
25188;DHT22;13141;50.414;8.050;2023-03-09T04:01:51;5.00;99.90
25188;DHT22;13141;50.414;8.050;2023-03-09T04:04:17;5.00;99.90
25188;DHT22;13141;50.414;8.050;2023-03-09T04:06:43;5.20;99.90
25188;DHT22;13141;50.414;8.050;2023-03-09T04:09:08;5.00;99.90
25188;DHT22;13141;50.414;8.050;2023-03-09T04:11:35;5.00;99.90
25188;DHT22;13141;50.414;8.050;2023-03-09T04:14:01;5.00;99.90
25188;DHT22;13141;50.414;8.050;2023-03-09T04:16:27;5.00;99.90
25188;DHT22;13141;50.414;8.050;2023-03-09T04:18:52;5.00;99.90
25188;DHT22;13141;50.414;8.050;2023-03-09T04:21:18;5.10;99.90
25188;DHT22;13141;50.414;8.050;2023-03-09T04:23:44;5.00;99.90
25188;DHT22;13141;50.414;8.050;2023-03-09T04:26:10;5.00;99.90
25188;DHT22;13141;50.414;8.050;2023-03-09T04:28:37;5.10;99.90
25188;DHT22;13141;50.414;8.050;2023-03-09T04:31:03;5.40;99.90
25188;DHT22;13141;50.414;8.050;2023-03-09T04:33:29;5.20;99.90
25188;DHT22;13141;50.414;8.050;2023-03-09T04:35:55;5.30;99.90
25188;DHT22;13141;50.414;8.050;2023-03-09T04:38:20;5.20;99.90
25188;DHT22;13141;50.414;8.050;2023-03-09T04:40:46;5.20;99.90
25188;DHT22;13141;50.414;8.050;2023-03-09T04:43:12;5.20;99.90
25188;DHT22;13141;50.414;8.050;2023-03-09T04:45:39;5.20;99.90
25188;DHT22;13141;50.414;8.050;2023-03-09T04:48:05;5.30;99.90
25188;DHT22;13141;50.414;8.050;2023-03-09T04:50:31;5.30;99.90
25188;DHT22;13141;50.414;8.050;2023-03-09T04:52:56;5.30;99.90
25188;DHT22;13141;50.414;8.050;2023-03-09T04:55:22;5.20;99.90
25188;DHT22;13141;50.414;8.050;2023-03-09T04:57:48;5.20;99.90
25188;DHT22;13141;50.414;8.050;2023-03-09T05:00:15;5.30;99.90
25188;DHT22;13141;50.414;8.050;2023-03-09T05:02:43;5.30;99.90
25188;DHT22;13141;50.414;8.050;2023-03-09T05:05:09;5.40;99.90
25188;DHT22;13141;50.414;8.050;2023-03-09T05:07:35;5.40;99.90
25188;DHT22;13141;50.414;8.050;2023-03-09T05:10:00;5.50;99.90
25188;DHT22;13141;50.414;8.050;2023-03-09T05:12:26;5.50;99.90
25188;DHT22;13141;50.414;8.050;2023-03-09T05:14:52;5.50;99.90
25188;DHT22;13141;50.414;8.050;2023-03-09T05:17:17;5.50;99.90
25188;DHT22;13141;50.414;8.050;2023-03-09T05:19:44;5.50;99.90
25188;DHT22;13141;50.414;8.050;2023-03-09T05:22:11;5.50;99.90
25188;DHT22;13141;50.414;8.050;2023-03-09T05:24:37;5.60;99.90
25188;DHT22;13141;50.414;8.050;2023-03-09T05:27:03;5.50;99.90
25188;DHT22;13141;50.414;8.050;2023-03-09T05:29:28;5.40;99.90
25188;DHT22;13141;50.414;8.050;2023-03-09T05:31:54;5.40;99.90
25188;DHT22;13141;50.414;8.050;2023-03-09T05:34:20;5.40;99.90
25188;DHT22;13141;50.414;8.050;2023-03-09T05:36:47;5.50;99.90
25188;DHT22;13141;50.414;8.050;2023-03-09T05:39:12;5.50;99.90
25188;DHT22;13141;50.414;8.050;2023-03-09T05:41:38;5.50;99.90
25188;DHT22;13141;50.414;8.050;2023-03-09T05:44:05;5.60;99.90
25188;DHT22;13141;50.414;8.050;2023-03-09T05:46:30;5.40;99.90
25188;DHT22;13141;50.414;8.050;2023-03-09T05:48:56;5.50;99.90
25188;DHT22;13141;50.414;8.050;2023-03-09T05:51:22;5.50;99.90
25188;DHT22;13141;50.414;8.050;2023-03-09T05:53:49;5.50;99.90
25188;DHT22;13141;50.414;8.050;2023-03-09T05:56:14;5.50;99.90
25188;DHT22;13141;50.414;8.050;2023-03-09T05:58:40;5.50;99.90
25188;DHT22;13141;50.414;8.050;2023-03-09T06:01:16;5.50;99.90
25188;DHT22;13141;50.414;8.050;2023-03-09T06:03:42;5.50;99.90
25188;DHT22;13141;50.414;8.050;2023-03-09T06:06:09;5.60;99.90
25188;DHT22;13141;50.414;8.050;2023-03-09T06:08:35;5.70;99.90
25188;DHT22;13141;50.414;8.050;2023-03-09T06:11:02;5.70;99.90
25188;DHT22;13141;50.414;8.050;2023-03-09T06:13:27;5.70;99.90
25188;DHT22;13141;50.414;8.050;2023-03-09T06:15:53;5.80;99.90
25188;DHT22;13141;50.414;8.050;2023-03-09T06:18:19;5.80;99.90
25188;DHT22;13141;50.414;8.050;2023-03-09T06:20:45;5.80;99.90
25188;DHT22;13141;50.414;8.050;2023-03-09T06:23:11;5.80;99.90
25188;DHT22;13141;50.414;8.050;2023-03-09T06:25:36;5.80;99.90
25188;DHT22;13141;50.414;8.050;2023-03-09T06:28:04;5.40;99.90
25188;DHT22;13141;50.414;8.050;2023-03-09T06:30:29;5.90;99.90
25188;DHT22;13141;50.414;8.050;2023-03-09T06:32:55;5.80;99.90
25188;DHT22;13141;50.414;8.050;2023-03-09T06:35:21;5.90;99.90
25188;DHT22;13141;50.414;8.050;2023-03-09T06:37:47;5.80;99.90
25188;DHT22;13141;50.414;8.050;2023-03-09T06:40:13;5.80;99.90
25188;DHT22;13141;50.414;8.050;2023-03-09T06:42:39;5.80;99.90
25188;DHT22;13141;50.414;8.050;2023-03-09T06:45:07;5.80;99.90
25188;DHT22;13141;50.414;8.050;2023-03-09T06:47:33;5.90;99.90
25188;DHT22;13141;50.414;8.050;2023-03-09T06:49:59;5.90;99.90
25188;DHT22;13141;50.414;8.050;2023-03-09T06:52:25;5.90;99.90
25188;DHT22;13141;50.414;8.050;2023-03-09T06:54:50;6.00;99.90
25188;DHT22;13141;50.414;8.050;2023-03-09T06:57:16;6.00;99.90
25188;DHT22;13141;50.414;8.050;2023-03-09T06:59:42;6.10;99.90
25188;DHT22;13141;50.414;8.050;2023-03-09T07:02:10;6.10;99.90
25188;DHT22;13141;50.414;8.050;2023-03-09T07:04:36;6.10;99.90
25188;DHT22;13141;50.414;8.050;2023-03-09T07:07:02;6.20;99.90
25188;DHT22;13141;50.414;8.050;2023-03-09T07:09:28;6.30;99.90
25188;DHT22;13141;50.414;8.050;2023-03-09T07:11:53;6.30;99.90
25188;DHT22;13141;50.414;8.050;2023-03-09T07:14:19;6.40;99.90
25188;DHT22;13141;50.414;8.050;2023-03-09T07:16:51;6.60;99.90
25188;DHT22;13141;50.414;8.050;2023-03-09T07:19:18;6.80;99.90
25188;DHT22;13141;50.414;8.050;2023-03-09T07:21:44;7.00;99.90
25188;DHT22;13141;50.414;8.050;2023-03-09T07:24:09;7.20;99.90
25188;DHT22;13141;50.414;8.050;2023-03-09T07:26:35;7.30;99.90
25188;DHT22;13141;50.414;8.050;2023-03-09T07:29:01;7.50;99.90
25188;DHT22;13141;50.414;8.050;2023-03-09T07:31:27;7.80;99.90
25188;DHT22;13141;50.414;8.050;2023-03-09T07:33:52;8.10;99.90
25188;DHT22;13141;50.414;8.050;2023-03-09T07:36:19;8.30;99.90
25188;DHT22;13141;50.414;8.050;2023-03-09T07:38:45;8.50;99.90
25188;DHT22;13141;50.414;8.050;2023-03-09T07:41:11;8.60;99.90
25188;DHT22;13141;50.414;8.050;2023-03-09T07:43:36;8.80;99.90
25188;DHT22;13141;50.414;8.050;2023-03-09T07:46:05;8.90;99.90
25188;DHT22;13141;50.414;8.050;2023-03-09T07:48:30;9.10;99.90
25188;DHT22;13141;50.414;8.050;2023-03-09T07:50:57;9.30;99.90
25188;DHT22;13141;50.414;8.050;2023-03-09T07:53:24;9.40;99.90
25188;DHT22;13141;50.414;8.050;2023-03-09T07:55:54;9.40;99.90
25188;DHT22;13141;50.414;8.050;2023-03-09T07:58:20;9.40;99.90
25188;DHT22;13141;50.414;8.050;2023-03-09T08:00:45;9.60;99.90
25188;DHT22;13141;50.414;8.050;2023-03-09T08:03:11;9.60;99.90
25188;DHT22;13141;50.414;8.050;2023-03-09T08:05:39;9.60;99.90
25188;DHT22;13141;50.414;8.050;2023-03-09T08:08:05;9.70;99.90
25188;DHT22;13141;50.414;8.050;2023-03-09T08:10:32;9.90;99.90
25188;DHT22;13141;50.414;8.050;2023-03-09T08:12:58;9.90;99.90
25188;DHT22;13141;50.414;8.050;2023-03-09T08:15:24;9.90;99.90
25188;DHT22;13141;50.414;8.050;2023-03-09T08:17:49;9.90;99.90
25188;DHT22;13141;50.414;8.050;2023-03-09T08:20:15;10.00;99.90
25188;DHT22;13141;50.414;8.050;2023-03-09T08:22:41;10.00;99.90
25188;DHT22;13141;50.414;8.050;2023-03-09T08:25:08;10.10;99.90
25188;DHT22;13141;50.414;8.050;2023-03-09T08:27:39;10.10;99.90
25188;DHT22;13141;50.414;8.050;2023-03-09T08:30:06;10.10;99.90
25188;DHT22;13141;50.414;8.050;2023-03-09T08:32:32;10.10;99.90
25188;DHT22;13141;50.414;8.050;2023-03-09T08:34:57;10.10;99.90
25188;DHT22;13141;50.414;8.050;2023-03-09T08:37:23;10.20;99.90
25188;DHT22;13141;50.414;8.050;2023-03-09T08:39:50;10.20;99.90
25188;DHT22;13141;50.414;8.050;2023-03-09T08:42:16;10.20;99.90
25188;DHT22;13141;50.414;8.050;2023-03-09T08:44:43;10.10;99.90
25188;DHT22;13141;50.414;8.050;2023-03-09T08:47:09;10.20;99.90
25188;DHT22;13141;50.414;8.050;2023-03-09T08:49:35;10.10;99.90
25188;DHT22;13141;50.414;8.050;2023-03-09T08:52:01;10.10;99.90
25188;DHT22;13141;50.414;8.050;2023-03-09T08:54:27;10.00;99.90
25188;DHT22;13141;50.414;8.050;2023-03-09T08:56:52;10.00;99.90
25188;DHT22;13141;50.414;8.050;2023-03-09T08:59:18;9.50;99.90
25188;DHT22;13141;50.414;8.050;2023-03-09T09:01:45;10.10;99.90
25188;DHT22;13141;50.414;8.050;2023-03-09T09:04:11;10.20;99.90
25188;DHT22;13141;50.414;8.050;2023-03-09T09:06:37;10.30;99.90
25188;DHT22;13141;50.414;8.050;2023-03-09T09:09:02;10.30;99.90
25188;DHT22;13141;50.414;8.050;2023-03-09T09:11:28;10.40;99.90
25188;DHT22;13141;50.414;8.050;2023-03-09T09:13:54;10.40;99.90
25188;DHT22;13141;50.414;8.050;2023-03-09T09:16:20;10.60;99.90
25188;DHT22;13141;50.414;8.050;2023-03-09T09:18:47;10.60;99.90
25188;DHT22;13141;50.414;8.050;2023-03-09T09:21:14;10.70;99.90
25188;DHT22;13141;50.414;8.050;2023-03-09T09:23:41;10.80;99.90
25188;DHT22;13141;50.414;8.050;2023-03-09T09:26:07;10.80;99.90
25188;DHT22;13141;50.414;8.050;2023-03-09T09:28:33;10.90;99.90
25188;DHT22;13141;50.414;8.050;2023-03-09T09:31:01;10.90;99.90
25188;DHT22;13141;50.414;8.050;2023-03-09T09:33:27;10.90;99.90
25188;DHT22;13141;50.414;8.050;2023-03-09T09:35:57;10.90;99.90
25188;DHT22;13141;50.414;8.050;2023-03-09T09:38:24;10.90;99.90
25188;DHT22;13141;50.414;8.050;2023-03-09T09:40:50;11.10;99.90
25188;DHT22;13141;50.414;8.050;2023-03-09T09:43:16;11.10;99.90
25188;DHT22;13141;50.414;8.050;2023-03-09T09:45:42;11.10;99.90
25188;DHT22;13141;50.414;8.050;2023-03-09T09:48:12;11.10;99.90
25188;DHT22;13141;50.414;8.050;2023-03-09T09:50:49;11.20;99.90
25188;DHT22;13141;50.414;8.050;2023-03-09T09:53:26;11.30;99.90
25188;DHT22;13141;50.414;8.050;2023-03-09T09:55:54;11.30;99.90
25188;DHT22;13141;50.414;8.050;2023-03-09T09:58:28;11.30;99.90
25188;DHT22;13141;50.414;8.050;2023-03-09T10:00:57;11.30;99.90
25188;DHT22;13141;50.414;8.050;2023-03-09T10:03:26;11.20;99.90
25188;DHT22;13141;50.414;8.050;2023-03-09T10:05:56;11.20;99.90
25188;DHT22;13141;50.414;8.050;2023-03-09T10:08:34;11.10;99.90
25188;DHT22;13141;50.414;8.050;2023-03-09T10:11:11;11.10;99.90
25188;DHT22;13141;50.414;8.050;2023-03-09T10:13:41;11.20;99.90
25188;DHT22;13141;50.414;8.050;2023-03-09T10:16:11;11.10;99.90
25188;DHT22;13141;50.414;8.050;2023-03-09T10:18:42;11.10;99.90
25188;DHT22;13141;50.414;8.050;2023-03-09T10:21:15;11.30;99.90
25188;DHT22;13141;50.414;8.050;2023-03-09T10:23:44;11.40;99.90
25188;DHT22;13141;50.414;8.050;2023-03-09T10:26:17;11.40;99.90
25188;DHT22;13141;50.414;8.050;2023-03-09T10:28:48;11.50;99.90
25188;DHT22;13141;50.414;8.050;2023-03-09T10:31:17;11.70;99.90
25188;DHT22;13141;50.414;8.050;2023-03-09T10:33:44;11.80;99.90
25188;DHT22;13141;50.414;8.050;2023-03-09T10:36:16;11.80;99.90
25188;DHT22;13141;50.414;8.050;2023-03-09T10:38:44;12.10;99.90
25188;DHT22;13141;50.414;8.050;2023-03-09T10:41:14;12.20;99.90
25188;DHT22;13141;50.414;8.050;2023-03-09T10:43:40;12.50;99.90
25188;DHT22;13141;50.414;8.050;2023-03-09T10:46:12;12.60;99.90
25188;DHT22;13141;50.414;8.050;2023-03-09T10:48:38;12.80;99.90
25188;DHT22;13141;50.414;8.050;2023-03-09T10:51:05;13.00;99.90
25188;DHT22;13141;50.414;8.050;2023-03-09T10:53:44;13.30;99.90
25188;DHT22;13141;50.414;8.050;2023-03-09T10:56:15;13.50;99.90
25188;DHT22;13141;50.414;8.050;2023-03-09T10:58:41;13.40;99.90
25188;DHT22;13141;50.414;8.050;2023-03-09T11:01:20;13.60;99.90
25188;DHT22;13141;50.414;8.050;2023-03-09T11:03:47;13.70;99.90
25188;DHT22;13141;50.414;8.050;2023-03-09T11:06:31;14.00;99.90
25188;DHT22;13141;50.414;8.050;2023-03-09T11:09:06;14.40;99.90
25188;DHT22;13141;50.414;8.050;2023-03-09T11:11:32;14.40;99.90
25188;DHT22;13141;50.414;8.050;2023-03-09T11:13:58;14.50;99.90
25188;DHT22;13141;50.414;8.050;2023-03-09T11:16:25;14.40;99.90
25188;DHT22;13141;50.414;8.050;2023-03-09T11:19:10;14.40;99.90
25188;DHT22;13141;50.414;8.050;2023-03-09T11:21:37;14.30;99.90
25188;DHT22;13141;50.414;8.050;2023-03-09T11:24:07;14.30;99.90
25188;DHT22;13141;50.414;8.050;2023-03-09T11:26:37;14.20;99.90
25188;DHT22;13141;50.414;8.050;2023-03-09T11:29:13;14.40;99.90
25188;DHT22;13141;50.414;8.050;2023-03-09T11:31:43;14.40;99.90
25188;DHT22;13141;50.414;8.050;2023-03-09T11:34:14;14.10;99.90
25188;DHT22;13141;50.414;8.050;2023-03-09T11:36:44;13.90;99.90
25188;DHT22;13141;50.414;8.050;2023-03-09T11:39:16;14.00;99.90
25188;DHT22;13141;50.414;8.050;2023-03-09T11:41:45;13.50;99.90
25188;DHT22;13141;50.414;8.050;2023-03-09T11:44:21;14.00;99.90
25188;DHT22;13141;50.414;8.050;2023-03-09T11:46:49;13.70;99.90
25188;DHT22;13141;50.414;8.050;2023-03-09T11:49:18;13.50;99.90
25188;DHT22;13141;50.414;8.050;2023-03-09T11:51:49;13.70;99.90
25188;DHT22;13141;50.414;8.050;2023-03-09T11:54:20;13.70;99.90
25188;DHT22;13141;50.414;8.050;2023-03-09T11:56:48;13.70;99.90
25188;DHT22;13141;50.414;8.050;2023-03-09T11:59:18;13.80;99.90
25188;DHT22;13141;50.414;8.050;2023-03-09T12:01:47;13.60;99.90
25188;DHT22;13141;50.414;8.050;2023-03-09T12:04:16;13.80;99.90
25188;DHT22;13141;50.414;8.050;2023-03-09T12:06:48;13.90;99.90
25188;DHT22;13141;50.414;8.050;2023-03-09T12:09:24;14.10;99.90
25188;DHT22;13141;50.414;8.050;2023-03-09T12:11:55;14.00;99.90
25188;DHT22;13141;50.414;8.050;2023-03-09T12:14:27;13.90;99.90
25188;DHT22;13141;50.414;8.050;2023-03-09T12:16:58;13.90;99.90
25188;DHT22;13141;50.414;8.050;2023-03-09T12:19:27;13.70;99.90
25188;DHT22;13141;50.414;8.050;2023-03-09T12:22:00;13.60;99.90
25188;DHT22;13141;50.414;8.050;2023-03-09T12:24:32;13.40;99.90
25188;DHT22;13141;50.414;8.050;2023-03-09T12:27:03;13.20;99.90
25188;DHT22;13141;50.414;8.050;2023-03-09T12:29:33;13.00;99.90
25188;DHT22;13141;50.414;8.050;2023-03-09T12:32:34;12.90;99.90
25188;DHT22;13141;50.414;8.050;2023-03-09T12:35:02;12.70;99.90
25188;DHT22;13141;50.414;8.050;2023-03-09T12:37:54;12.70;99.90
25188;DHT22;13141;50.414;8.050;2023-03-09T12:40:31;12.70;99.90
25188;DHT22;13141;50.414;8.050;2023-03-09T12:45:46;12.60;99.90
25188;DHT22;13141;50.414;8.050;2023-03-09T12:48:22;12.60;99.90
25188;DHT22;13141;50.414;8.050;2023-03-09T12:50:53;12.70;99.90
25188;DHT22;13141;50.414;8.050;2023-03-09T12:53:22;12.80;99.90
25188;DHT22;13141;50.414;8.050;2023-03-09T12:55:51;12.90;99.90
25188;DHT22;13141;50.414;8.050;2023-03-09T12:58:39;13.10;99.90
25188;DHT22;13141;50.414;8.050;2023-03-09T13:01:09;13.50;99.90
25188;DHT22;13141;50.414;8.050;2023-03-09T13:03:41;13.90;99.90
25188;DHT22;13141;50.414;8.050;2023-03-09T13:06:21;14.00;99.90
25188;DHT22;13141;50.414;8.050;2023-03-09T13:08:51;14.10;99.90
25188;DHT22;13141;50.414;8.050;2023-03-09T13:11:30;14.10;99.90
25188;DHT22;13141;50.414;8.050;2023-03-09T13:13:57;14.10;99.90
25188;DHT22;13141;50.414;8.050;2023-03-09T13:16:47;13.90;99.90
25188;DHT22;13141;50.414;8.050;2023-03-09T13:22:36;13.70;99.90
25188;DHT22;13141;50.414;8.050;2023-03-09T13:25:31;13.80;99.90
25188;DHT22;13141;50.414;8.050;2023-03-09T13:28:20;14.00;99.90
25188;DHT22;13141;50.414;8.050;2023-03-09T13:30:47;14.30;99.90
25188;DHT22;13141;50.414;8.050;2023-03-09T13:33:19;14.60;99.90
25188;DHT22;13141;50.414;8.050;2023-03-09T13:35:52;14.70;99.90
25188;DHT22;13141;50.414;8.050;2023-03-09T13:38:22;14.80;99.90
25188;DHT22;13141;50.414;8.050;2023-03-09T13:40:51;14.90;99.90
25188;DHT22;13141;50.414;8.050;2023-03-09T13:43:20;14.90;99.90
25188;DHT22;13141;50.414;8.050;2023-03-09T13:46:01;14.80;99.90
25188;DHT22;13141;50.414;8.050;2023-03-09T13:48:29;14.70;99.90
25188;DHT22;13141;50.414;8.050;2023-03-09T13:50:55;14.20;99.90
25188;DHT22;13141;50.414;8.050;2023-03-09T13:53:23;14.50;99.90
25188;DHT22;13141;50.414;8.050;2023-03-09T13:55:57;14.60;99.90
25188;DHT22;13141;50.414;8.050;2023-03-09T13:58:25;14.50;99.90
25188;DHT22;13141;50.414;8.050;2023-03-09T14:00:53;14.30;99.90
25188;DHT22;13141;50.414;8.050;2023-03-09T14:03:20;14.40;99.90
25188;DHT22;13141;50.414;8.050;2023-03-09T14:05:54;14.40;99.90
25188;DHT22;13141;50.414;8.050;2023-03-09T14:08:21;14.30;99.90
25188;DHT22;13141;50.414;8.050;2023-03-09T14:10:48;14.40;99.90
25188;DHT22;13141;50.414;8.050;2023-03-09T14:13:17;14.40;99.90
25188;DHT22;13141;50.414;8.050;2023-03-09T14:15:48;14.50;99.90
25188;DHT22;13141;50.414;8.050;2023-03-09T14:18:23;14.90;99.90
25188;DHT22;13141;50.414;8.050;2023-03-09T14:20:50;15.00;99.90
25188;DHT22;13141;50.414;8.050;2023-03-09T14:23:16;15.40;99.90
25188;DHT22;13141;50.414;8.050;2023-03-09T14:25:43;15.10;99.90
25188;DHT22;13141;50.414;8.050;2023-03-09T14:28:23;14.90;99.90
25188;DHT22;13141;50.414;8.050;2023-03-09T14:30:50;14.70;99.90
25188;DHT22;13141;50.414;8.050;2023-03-09T14:33:24;14.40;99.90
25188;DHT22;13141;50.414;8.050;2023-03-09T14:36:04;14.00;99.90
25188;DHT22;13141;50.414;8.050;2023-03-09T14:38:30;14.20;99.90
25188;DHT22;13141;50.414;8.050;2023-03-09T14:40:59;14.20;99.90
25188;DHT22;13141;50.414;8.050;2023-03-09T14:43:31;14.30;99.90
25188;DHT22;13141;50.414;8.050;2023-03-09T14:46:09;14.30;99.90
25188;DHT22;13141;50.414;8.050;2023-03-09T14:48:35;14.50;99.90
25188;DHT22;13141;50.414;8.050;2023-03-09T14:51:05;14.30;99.90
25188;DHT22;13141;50.414;8.050;2023-03-09T14:53:33;14.20;99.90
25188;DHT22;13141;50.414;8.050;2023-03-09T14:55:59;14.10;99.90
25188;DHT22;13141;50.414;8.050;2023-03-09T14:58:25;14.10;99.90
25188;DHT22;13141;50.414;8.050;2023-03-09T15:00:51;13.90;99.90
25188;DHT22;13141;50.414;8.050;2023-03-09T15:03:18;13.90;99.90
25188;DHT22;13141;50.414;8.050;2023-03-09T15:05:43;13.80;99.90
25188;DHT22;13141;50.414;8.050;2023-03-09T15:08:10;13.80;99.90
25188;DHT22;13141;50.414;8.050;2023-03-09T15:10:35;13.80;99.90
25188;DHT22;13141;50.414;8.050;2023-03-09T15:13:02;13.70;99.90
25188;DHT22;13141;50.414;8.050;2023-03-09T15:15:28;13.80;99.90
25188;DHT22;13141;50.414;8.050;2023-03-09T15:17:53;14.00;99.90
25188;DHT22;13141;50.414;8.050;2023-03-09T15:20:22;13.40;99.90
25188;DHT22;13141;50.414;8.050;2023-03-09T15:22:48;13.90;99.90
25188;DHT22;13141;50.414;8.050;2023-03-09T15:25:15;14.00;99.90
25188;DHT22;13141;50.414;8.050;2023-03-09T15:27:41;13.90;99.90
25188;DHT22;13141;50.414;8.050;2023-03-09T15:30:10;13.90;99.90
25188;DHT22;13141;50.414;8.050;2023-03-09T15:32:36;13.90;99.90
25188;DHT22;13141;50.414;8.050;2023-03-09T15:35:02;13.90;99.90
25188;DHT22;13141;50.414;8.050;2023-03-09T15:37:29;13.90;99.90
25188;DHT22;13141;50.414;8.050;2023-03-09T15:39:54;13.90;99.90
25188;DHT22;13141;50.414;8.050;2023-03-09T15:42:20;13.90;99.90
25188;DHT22;13141;50.414;8.050;2023-03-09T15:44:45;14.00;99.90
25188;DHT22;13141;50.414;8.050;2023-03-09T15:47:11;14.10;99.90
25188;DHT22;13141;50.414;8.050;2023-03-09T15:49:37;14.00;99.90
25188;DHT22;13141;50.414;8.050;2023-03-09T15:52:05;13.90;99.90
25188;DHT22;13141;50.414;8.050;2023-03-09T15:54:32;14.00;99.90